sensor_id;sensor_type;location;lat;lon;timestamp;P1;durP1;ratioP1;P2;durP2;ratioP2
13481;SDS011;6813;60.352;15.746;2023-03-14T00:01:52;0.53;;;0.37;;
13481;SDS011;6813;60.352;15.746;2023-03-14T00:04:18;0.23;;;0.20;;
13481;SDS011;6813;60.352;15.746;2023-03-14T00:06:44;0.27;;;0.20;;
13481;SDS011;6813;60.352;15.746;2023-03-14T00:09:11;0.10;;;0.10;;
13481;SDS011;6813;60.352;15.746;2023-03-14T00:11:38;0.20;;;0.20;;
13481;SDS011;6813;60.352;15.746;2023-03-14T00:14:04;0.10;;;0.10;;
13481;SDS011;6813;60.352;15.746;2023-03-14T00:16:30;0.20;;;0.20;;
13481;SDS011;6813;60.352;15.746;2023-03-14T00:18:55;0.20;;;0.20;;
13481;SDS011;6813;60.352;15.746;2023-03-14T00:21:22;0.20;;;0.20;;
13481;SDS011;6813;60.352;15.746;2023-03-14T00:23:48;0.40;;;0.40;;
13481;SDS011;6813;60.352;15.746;2023-03-14T00:26:15;0.30;;;0.30;;
13481;SDS011;6813;60.352;15.746;2023-03-14T00:28:42;0.60;;;0.50;;
13481;SDS011;6813;60.352;15.746;2023-03-14T00:31:10;0.80;;;0.80;;
13481;SDS011;6813;60.352;15.746;2023-03-14T00:33:38;0.80;;;0.80;;
13481;SDS011;6813;60.352;15.746;2023-03-14T00:36:05;0.60;;;0.50;;
13481;SDS011;6813;60.352;15.746;2023-03-14T00:38:34;0.20;;;0.20;;
13481;SDS011;6813;60.352;15.746;2023-03-14T00:41:07;0.23;;;0.23;;
13481;SDS011;6813;60.352;15.746;2023-03-14T00:43:35;0.40;;;0.33;;
13481;SDS011;6813;60.352;15.746;2023-03-14T00:46:01;0.27;;;0.27;;
13481;SDS011;6813;60.352;15.746;2023-03-14T00:48:27;0.50;;;0.30;;
13481;SDS011;6813;60.352;15.746;2023-03-14T00:50:52;0.83;;;0.40;;
13481;SDS011;6813;60.352;15.746;2023-03-14T00:53:18;0.27;;;0.27;;
13481;SDS011;6813;60.352;15.746;2023-03-14T00:55:44;0.30;;;0.30;;
13481;SDS011;6813;60.352;15.746;2023-03-14T00:58:11;0.30;;;0.30;;
13481;SDS011;6813;60.352;15.746;2023-03-14T01:00:38;0.70;;;0.70;;
13481;SDS011;6813;60.352;15.746;2023-03-14T01:03:06;1.17;;;1.07;;
13481;SDS011;6813;60.352;15.746;2023-03-14T01:05:32;3.10;;;1.93;;
13481;SDS011;6813;60.352;15.746;2023-03-14T01:07:58;2.13;;;1.37;;
13481;SDS011;6813;60.352;15.746;2023-03-14T01:10:24;3.30;;;1.60;;
13481;SDS011;6813;60.352;15.746;2023-03-14T01:12:50;0.47;;;0.47;;
13481;SDS011;6813;60.352;15.746;2023-03-14T01:15:15;0.30;;;0.30;;
13481;SDS011;6813;60.352;15.746;2023-03-14T01:17:41;0.10;;;0.10;;
13481;SDS011;6813;60.352;15.746;2023-03-14T01:20:08;0.30;;;0.30;;
13481;SDS011;6813;60.352;15.746;2023-03-14T01:22:36;0.50;;;0.50;;
13481;SDS011;6813;60.352;15.746;2023-03-14T01:25:05;0.23;;;0.23;;
13481;SDS011;6813;60.352;15.746;2023-03-14T01:27:32;1.90;;;0.40;;
13481;SDS011;6813;60.352;15.746;2023-03-14T01:29:58;0.30;;;0.20;;
13481;SDS011;6813;60.352;15.746;2023-03-14T01:32:24;0.20;;;0.20;;
13481;SDS011;6813;60.352;15.746;2023-03-14T01:34:50;0.43;;;0.43;;
13481;SDS011;6813;60.352;15.746;2023-03-14T01:37:16;0.10;;;0.10;;
13481;SDS011;6813;60.352;15.746;2023-03-14T01:39:42;0.20;;;0.20;;
13481;SDS011;6813;60.352;15.746;2023-03-14T01:42:08;0.10;;;0.10;;
13481;SDS011;6813;60.352;15.746;2023-03-14T01:44:49;0.13;;;0.13;;
13481;SDS011;6813;60.352;15.746;2023-03-14T01:47:22;0.10;;;0.10;;
13481;SDS011;6813;60.352;15.746;2023-03-14T01:49:50;0.13;;;0.13;;
13481;SDS011;6813;60.352;15.746;2023-03-14T01:52:29;0.30;;;0.10;;
13481;SDS011;6813;60.352;15.746;2023-03-14T01:54:59;0.20;;;0.20;;
13481;SDS011;6813;60.352;15.746;2023-03-14T01:57:36;0.50;;;0.20;;
13481;SDS011;6813;60.352;15.746;2023-03-14T02:00:08;0.30;;;0.20;;
13481;SDS011;6813;60.352;15.746;2023-03-14T02:02:42;0.20;;;0.20;;
13481;SDS011;6813;60.352;15.746;2023-03-14T02:05:10;0.33;;;0.20;;
13481;SDS011;6813;60.352;15.746;2023-03-14T02:07:46;0.53;;;0.20;;
13481;SDS011;6813;60.352;15.746;2023-03-14T02:10:21;0.20;;;0.20;;
13481;SDS011;6813;60.352;15.746;2023-03-14T02:12:49;0.73;;;0.37;;
13481;SDS011;6813;60.352;15.746;2023-03-14T02:15:17;0.30;;;0.30;;
13481;SDS011;6813;60.352;15.746;2023-03-14T02:17:44;0.30;;;0.30;;
13481;SDS011;6813;60.352;15.746;2023-03-14T02:22:37;0.60;;;0.47;;
13481;SDS011;6813;60.352;15.746;2023-03-14T02:27:35;0.27;;;0.27;;
13481;SDS011;6813;60.352;15.746;2023-03-14T02:30:04;0.20;;;0.20;;
13481;SDS011;6813;60.352;15.746;2023-03-14T02:32:35;0.20;;;0.20;;
13481;SDS011;6813;60.352;15.746;2023-03-14T02:35:06;0.20;;;0.20;;
13481;SDS011;6813;60.352;15.746;2023-03-14T02:37:41;0.37;;;0.17;;
13481;SDS011;6813;60.352;15.746;2023-03-14T02:40:11;0.30;;;0.30;;
13481;SDS011;6813;60.352;15.746;2023-03-14T02:42:36;0.20;;;0.20;;
13481;SDS011;6813;60.352;15.746;2023-03-14T02:47:34;0.10;;;0.10;;
13481;SDS011;6813;60.352;15.746;2023-03-14T02:50:08;0.20;;;0.20;;
13481;SDS011;6813;60.352;15.746;2023-03-14T02:52:37;0.10;;;0.10;;
13481;SDS011;6813;60.352;15.746;2023-03-14T02:55:03;0.10;;;0.10;;
13481;SDS011;6813;60.352;15.746;2023-03-14T02:57:29;0.30;;;0.30;;
13481;SDS011;6813;60.352;15.746;2023-03-14T02:59:57;0.17;;;0.17;;
13481;SDS011;6813;60.352;15.746;2023-03-14T03:02:24;0.10;;;0.10;;
13481;SDS011;6813;60.352;15.746;2023-03-14T03:04:50;0.10;;;0.10;;
13481;SDS011;6813;60.352;15.746;2023-03-14T03:07:16;1.70;;;0.20;;
13481;SDS011;6813;60.352;15.746;2023-03-14T03:09:42;0.20;;;0.20;;
13481;SDS011;6813;60.352;15.746;2023-03-14T03:12:07;0.10;;;0.10;;
13481;SDS011;6813;60.352;15.746;2023-03-14T03:14:33;0.10;;;0.10;;
13481;SDS011;6813;60.352;15.746;2023-03-14T03:16:59;0.10;;;0.10;;
13481;SDS011;6813;60.352;15.746;2023-03-14T03:19:24;0.40;;;0.20;;
13481;SDS011;6813;60.352;15.746;2023-03-14T03:21:50;0.50;;;0.23;;
13481;SDS011;6813;60.352;15.746;2023-03-14T03:24:16;0.10;;;0.10;;
13481;SDS011;6813;60.352;15.746;2023-03-14T03:26:41;0.20;;;0.20;;
13481;SDS011;6813;60.352;15.746;2023-03-14T03:29:07;0.10;;;0.10;;
13481;SDS011;6813;60.352;15.746;2023-03-14T03:31:33;0.00;;;0.00;;
13481;SDS011;6813;60.352;15.746;2023-03-14T03:34:01;0.10;;;0.10;;
13481;SDS011;6813;60.352;15.746;2023-03-14T03:36:27;0.10;;;0.10;;
13481;SDS011;6813;60.352;15.746;2023-03-14T03:38:53;0.20;;;0.20;;
13481;SDS011;6813;60.352;15.746;2023-03-14T03:41:18;0.10;;;0.10;;
13481;SDS011;6813;60.352;15.746;2023-03-14T03:43:44;0.10;;;0.10;;
13481;SDS011;6813;60.352;15.746;2023-03-14T03:46:10;0.00;;;0.00;;
13481;SDS011;6813;60.352;15.746;2023-03-14T03:48:35;0.10;;;0.10;;
13481;SDS011;6813;60.352;15.746;2023-03-14T03:51:01;0.20;;;0.10;;
13481;SDS011;6813;60.352;15.746;2023-03-14T03:53:27;0.10;;;0.10;;
13481;SDS011;6813;60.352;15.746;2023-03-14T03:55:53;0.10;;;0.10;;
13481;SDS011;6813;60.352;15.746;2023-03-14T03:58:19;0.10;;;0.10;;
13481;SDS011;6813;60.352;15.746;2023-03-14T04:00:44;0.00;;;0.00;;
13481;SDS011;6813;60.352;15.746;2023-03-14T04:03:10;0.13;;;0.13;;
13481;SDS011;6813;60.352;15.746;2023-03-14T04:05:36;0.10;;;0.10;;
13481;SDS011;6813;60.352;15.746;2023-03-14T04:08:02;0.20;;;0.20;;
13481;SDS011;6813;60.352;15.746;2023-03-14T04:10:28;0.13;;;0.13;;
13481;SDS011;6813;60.352;15.746;2023-03-14T04:12:54;0.03;;;0.03;;
13481;SDS011;6813;60.352;15.746;2023-03-14T04:15:20;0.20;;;0.20;;
13481;SDS011;6813;60.352;15.746;2023-03-14T04:17:46;0.13;;;0.13;;
13481;SDS011;6813;60.352;15.746;2023-03-14T04:20:11;0.10;;;0.10;;
13481;SDS011;6813;60.352;15.746;2023-03-14T04:22:38;0.20;;;0.20;;
13481;SDS011;6813;60.352;15.746;2023-03-14T04:25:04;0.30;;;0.10;;
13481;SDS011;6813;60.352;15.746;2023-03-14T04:27:31;0.10;;;0.10;;
13481;SDS011;6813;60.352;15.746;2023-03-14T04:29:57;0.10;;;0.10;;
13481;SDS011;6813;60.352;15.746;2023-03-14T04:32:22;0.10;;;0.10;;
13481;SDS011;6813;60.352;15.746;2023-03-14T04:34:48;0.50;;;0.20;;
13481;SDS011;6813;60.352;15.746;2023-03-14T04:37:14;1.40;;;0.27;;
13481;SDS011;6813;60.352;15.746;2023-03-14T04:39:40;0.43;;;0.30;;
13481;SDS011;6813;60.352;15.746;2023-03-14T04:42:05;0.20;;;0.20;;
13481;SDS011;6813;60.352;15.746;2023-03-14T04:44:31;0.20;;;0.20;;
13481;SDS011;6813;60.352;15.746;2023-03-14T04:46:57;0.30;;;0.30;;
13481;SDS011;6813;60.352;15.746;2023-03-14T04:49:23;0.40;;;0.40;;
13481;SDS011;6813;60.352;15.746;2023-03-14T04:51:48;0.23;;;0.23;;
13481;SDS011;6813;60.352;15.746;2023-03-14T04:54:16;0.33;;;0.33;;
13481;SDS011;6813;60.352;15.746;2023-03-14T04:56:42;0.30;;;0.30;;
13481;SDS011;6813;60.352;15.746;2023-03-14T04:59:08;0.30;;;0.30;;
13481;SDS011;6813;60.352;15.746;2023-03-14T05:01:33;0.40;;;0.40;;
13481;SDS011;6813;60.352;15.746;2023-03-14T05:03:59;0.40;;;0.40;;
13481;SDS011;6813;60.352;15.746;2023-03-14T05:06:25;0.43;;;0.43;;
13481;SDS011;6813;60.352;15.746;2023-03-14T05:08:51;0.40;;;0.40;;
13481;SDS011;6813;60.352;15.746;2023-03-14T05:11:17;0.20;;;0.20;;
13481;SDS011;6813;60.352;15.746;2023-03-14T05:13:43;0.23;;;0.23;;
13481;SDS011;6813;60.352;15.746;2023-03-14T05:16:10;1.50;;;0.43;;
13481;SDS011;6813;60.352;15.746;2023-03-14T05:18:36;0.23;;;0.23;;
13481;SDS011;6813;60.352;15.746;2023-03-14T05:21:02;0.33;;;0.33;;
13481;SDS011;6813;60.352;15.746;2023-03-14T05:23:29;0.30;;;0.30;;
13481;SDS011;6813;60.352;15.746;2023-03-14T05:26:16;0.20;;;0.20;;
13481;SDS011;6813;60.352;15.746;2023-03-14T05:28:41;0.30;;;0.30;;
13481;SDS011;6813;60.352;15.746;2023-03-14T05:31:08;0.30;;;0.30;;
13481;SDS011;6813;60.352;15.746;2023-03-14T05:33:34;0.40;;;0.40;;
13481;SDS011;6813;60.352;15.746;2023-03-14T05:35:59;0.30;;;0.30;;
13481;SDS011;6813;60.352;15.746;2023-03-14T05:38:25;0.50;;;0.50;;
13481;SDS011;6813;60.352;15.746;2023-03-14T05:40:51;0.30;;;0.30;;
13481;SDS011;6813;60.352;15.746;2023-03-14T05:43:17;0.20;;;0.20;;
13481;SDS011;6813;60.352;15.746;2023-03-14T05:45:42;0.20;;;0.20;;
13481;SDS011;6813;60.352;15.746;2023-03-14T05:48:08;0.33;;;0.30;;
13481;SDS011;6813;60.352;15.746;2023-03-14T05:50:34;0.40;;;0.30;;
13481;SDS011;6813;60.352;15.746;2023-03-14T05:53:00;0.23;;;0.20;;
13481;SDS011;6813;60.352;15.746;2023-03-14T05:55:25;0.20;;;0.20;;
13481;SDS011;6813;60.352;15.746;2023-03-14T05:57:52;0.37;;;0.37;;
13481;SDS011;6813;60.352;15.746;2023-03-14T06:00:19;0.23;;;0.23;;
13481;SDS011;6813;60.352;15.746;2023-03-14T06:02:45;0.27;;;0.27;;
13481;SDS011;6813;60.352;15.746;2023-03-14T06:05:11;0.40;;;0.40;;
13481;SDS011;6813;60.352;15.746;2023-03-14T06:07:37;0.27;;;0.27;;
13481;SDS011;6813;60.352;15.746;2023-03-14T06:10:03;0.27;;;0.27;;
13481;SDS011;6813;60.352;15.746;2023-03-14T06:12:29;0.20;;;0.20;;
13481;SDS011;6813;60.352;15.746;2023-03-14T06:14:55;0.60;;;0.40;;
13481;SDS011;6813;60.352;15.746;2023-03-14T06:17:20;0.40;;;0.37;;
13481;SDS011;6813;60.352;15.746;2023-03-14T06:19:46;0.30;;;0.30;;
13481;SDS011;6813;60.352;15.746;2023-03-14T06:22:12;0.30;;;0.30;;
13481;SDS011;6813;60.352;15.746;2023-03-14T06:24:38;0.30;;;0.30;;
13481;SDS011;6813;60.352;15.746;2023-03-14T06:27:04;0.47;;;0.37;;
13481;SDS011;6813;60.352;15.746;2023-03-14T06:29:30;0.30;;;0.30;;
13481;SDS011;6813;60.352;15.746;2023-03-14T06:31:56;0.20;;;0.20;;
13481;SDS011;6813;60.352;15.746;2023-03-14T06:34:21;0.20;;;0.20;;
13481;SDS011;6813;60.352;15.746;2023-03-14T06:36:47;4.40;;;0.40;;
13481;SDS011;6813;60.352;15.746;2023-03-14T06:39:13;0.23;;;0.23;;
13481;SDS011;6813;60.352;15.746;2023-03-14T06:41:39;0.20;;;0.20;;
13481;SDS011;6813;60.352;15.746;2023-03-14T06:44:04;0.43;;;0.30;;
13481;SDS011;6813;60.352;15.746;2023-03-14T06:46:30;0.40;;;0.40;;
13481;SDS011;6813;60.352;15.746;2023-03-14T06:48:56;0.30;;;0.30;;
13481;SDS011;6813;60.352;15.746;2023-03-14T06:51:22;0.60;;;0.40;;
13481;SDS011;6813;60.352;15.746;2023-03-14T06:53:47;0.10;;;0.10;;
13481;SDS011;6813;60.352;15.746;2023-03-14T06:56:13;0.20;;;0.20;;
13481;SDS011;6813;60.352;15.746;2023-03-14T06:58:39;0.50;;;0.40;;
13481;SDS011;6813;60.352;15.746;2023-03-14T07:01:05;0.33;;;0.33;;
13481;SDS011;6813;60.352;15.746;2023-03-14T07:03:31;0.20;;;0.20;;
13481;SDS011;6813;60.352;15.746;2023-03-14T07:05:56;0.20;;;0.20;;
13481;SDS011;6813;60.352;15.746;2023-03-14T07:08:22;0.30;;;0.30;;
13481;SDS011;6813;60.352;15.746;2023-03-14T07:10:48;0.30;;;0.30;;
13481;SDS011;6813;60.352;15.746;2023-03-14T07:13:14;0.47;;;0.27;;
13481;SDS011;6813;60.352;15.746;2023-03-14T07:15:39;0.23;;;0.23;;
13481;SDS011;6813;60.352;15.746;2023-03-14T07:18:05;0.30;;;0.30;;
13481;SDS011;6813;60.352;15.746;2023-03-14T07:20:31;0.37;;;0.30;;
13481;SDS011;6813;60.352;15.746;2023-03-14T07:22:57;0.30;;;0.30;;
13481;SDS011;6813;60.352;15.746;2023-03-14T07:25:24;0.30;;;0.30;;
13481;SDS011;6813;60.352;15.746;2023-03-14T07:27:51;0.30;;;0.20;;
13481;SDS011;6813;60.352;15.746;2023-03-14T07:30:16;0.20;;;0.20;;
13481;SDS011;6813;60.352;15.746;2023-03-14T07:32:42;0.30;;;0.27;;
13481;SDS011;6813;60.352;15.746;2023-03-14T07:35:08;0.30;;;0.30;;
13481;SDS011;6813;60.352;15.746;2023-03-14T07:37:34;0.40;;;0.40;;
13481;SDS011;6813;60.352;15.746;2023-03-14T07:40:00;0.30;;;0.30;;
13481;SDS011;6813;60.352;15.746;2023-03-14T07:42:26;0.20;;;0.20;;
13481;SDS011;6813;60.352;15.746;2023-03-14T07:44:51;0.30;;;0.30;;
13481;SDS011;6813;60.352;15.746;2023-03-14T07:47:17;0.47;;;0.40;;
13481;SDS011;6813;60.352;15.746;2023-03-14T07:49:43;0.30;;;0.30;;
13481;SDS011;6813;60.352;15.746;2023-03-14T07:52:09;0.30;;;0.30;;
13481;SDS011;6813;60.352;15.746;2023-03-14T07:54:34;0.23;;;0.23;;
13481;SDS011;6813;60.352;15.746;2023-03-14T07:57:00;0.20;;;0.20;;
13481;SDS011;6813;60.352;15.746;2023-03-14T07:59:27;0.50;;;0.30;;
13481;SDS011;6813;60.352;15.746;2023-03-14T08:01:53;0.23;;;0.20;;
13481;SDS011;6813;60.352;15.746;2023-03-14T08:04:18;0.20;;;0.20;;
13481;SDS011;6813;60.352;15.746;2023-03-14T08:06:44;0.40;;;0.40;;
13481;SDS011;6813;60.352;15.746;2023-03-14T08:09:10;0.30;;;0.30;;
13481;SDS011;6813;60.352;15.746;2023-03-14T08:11:35;0.30;;;0.30;;
13481;SDS011;6813;60.352;15.746;2023-03-14T08:14:01;0.50;;;0.50;;
13481;SDS011;6813;60.352;15.746;2023-03-14T08:16:27;0.83;;;0.20;;
13481;SDS011;6813;60.352;15.746;2023-03-14T08:18:53;0.20;;;0.20;;
13481;SDS011;6813;60.352;15.746;2023-03-14T08:21:18;0.50;;;0.50;;
13481;SDS011;6813;60.352;15.746;2023-03-14T08:23:44;0.53;;;0.40;;
13481;SDS011;6813;60.352;15.746;2023-03-14T08:26:10;0.57;;;0.53;;
13481;SDS011;6813;60.352;15.746;2023-03-14T08:28:36;1.53;;;0.43;;
13481;SDS011;6813;60.352;15.746;2023-03-14T08:31:01;0.20;;;0.20;;
13481;SDS011;6813;60.352;15.746;2023-03-14T08:33:28;0.30;;;0.30;;
13481;SDS011;6813;60.352;15.746;2023-03-14T08:35:55;1.07;;;0.50;;
13481;SDS011;6813;60.352;15.746;2023-03-14T08:38:22;0.40;;;0.40;;
13481;SDS011;6813;60.352;15.746;2023-03-14T08:40:48;1.30;;;0.30;;
13481;SDS011;6813;60.352;15.746;2023-03-14T08:43:15;0.30;;;0.27;;
13481;SDS011;6813;60.352;15.746;2023-03-14T08:45:40;0.90;;;0.53;;
13481;SDS011;6813;60.352;15.746;2023-03-14T08:48:06;0.67;;;0.60;;
13481;SDS011;6813;60.352;15.746;2023-03-14T08:50:32;0.60;;;0.40;;
13481;SDS011;6813;60.352;15.746;2023-03-14T08:52:58;0.30;;;0.30;;
13481;SDS011;6813;60.352;15.746;2023-03-14T08:55:26;0.93;;;0.40;;
13481;SDS011;6813;60.352;15.746;2023-03-14T08:57:55;0.87;;;0.37;;
13481;SDS011;6813;60.352;15.746;2023-03-14T09:00:21;0.40;;;0.40;;
13481;SDS011;6813;60.352;15.746;2023-03-14T09:02:47;1.33;;;0.47;;
13481;SDS011;6813;60.352;15.746;2023-03-14T09:05:13;0.37;;;0.37;;
13481;SDS011;6813;60.352;15.746;2023-03-14T09:07:39;1.50;;;0.40;;
13481;SDS011;6813;60.352;15.746;2023-03-14T09:10:06;0.50;;;0.50;;
13481;SDS011;6813;60.352;15.746;2023-03-14T09:12:33;0.33;;;0.30;;
13481;SDS011;6813;60.352;15.746;2023-03-14T09:14:59;0.40;;;0.40;;
13481;SDS011;6813;60.352;15.746;2023-03-14T09:17:24;0.33;;;0.33;;
13481;SDS011;6813;60.352;15.746;2023-03-14T09:19:50;0.40;;;0.40;;
13481;SDS011;6813;60.352;15.746;2023-03-14T09:22:16;0.93;;;0.47;;
13481;SDS011;6813;60.352;15.746;2023-03-14T09:24:42;0.40;;;0.40;;
13481;SDS011;6813;60.352;15.746;2023-03-14T09:27:07;0.30;;;0.30;;
13481;SDS011;6813;60.352;15.746;2023-03-14T09:29:33;2.43;;;0.40;;
13481;SDS011;6813;60.352;15.746;2023-03-14T09:31:59;0.60;;;0.53;;
13481;SDS011;6813;60.352;15.746;2023-03-14T09:34:25;1.07;;;0.40;;
13481;SDS011;6813;60.352;15.746;2023-03-14T09:36:51;0.50;;;0.50;;
13481;SDS011;6813;60.352;15.746;2023-03-14T09:39:17;0.40;;;0.40;;
13481;SDS011;6813;60.352;15.746;2023-03-14T09:41:44;0.40;;;0.30;;
13481;SDS011;6813;60.352;15.746;2023-03-14T09:44:19;0.60;;;0.57;;
13481;SDS011;6813;60.352;15.746;2023-03-14T09:46:52;0.40;;;0.40;;
13481;SDS011;6813;60.352;15.746;2023-03-14T09:49:36;0.70;;;0.50;;
13481;SDS011;6813;60.352;15.746;2023-03-14T09:52:10;0.50;;;0.50;;
13481;SDS011;6813;60.352;15.746;2023-03-14T09:54:44;0.60;;;0.40;;
13481;SDS011;6813;60.352;15.746;2023-03-14T09:57:17;0.77;;;0.70;;
13481;SDS011;6813;60.352;15.746;2023-03-14T09:59:45;0.80;;;0.47;;
13481;SDS011;6813;60.352;15.746;2023-03-14T10:02:22;0.20;;;0.20;;
13481;SDS011;6813;60.352;15.746;2023-03-14T10:04:50;0.40;;;0.40;;
13481;SDS011;6813;60.352;15.746;2023-03-14T10:07:20;0.97;;;0.30;;
13481;SDS011;6813;60.352;15.746;2023-03-14T10:09:54;0.33;;;0.33;;
13481;SDS011;6813;60.352;15.746;2023-03-14T10:12:21;0.40;;;0.40;;
13481;SDS011;6813;60.352;15.746;2023-03-14T10:14:56;0.70;;;0.43;;
13481;SDS011;6813;60.352;15.746;2023-03-14T10:17:37;0.30;;;0.30;;
13481;SDS011;6813;60.352;15.746;2023-03-14T10:20:04;0.97;;;0.67;;
13481;SDS011;6813;60.352;15.746;2023-03-14T10:22:30;0.40;;;0.40;;
13481;SDS011;6813;60.352;15.746;2023-03-14T10:25:00;0.30;;;0.30;;
13481;SDS011;6813;60.352;15.746;2023-03-14T10:27:29;0.63;;;0.40;;
13481;SDS011;6813;60.352;15.746;2023-03-14T10:29:57;0.40;;;0.40;;
13481;SDS011;6813;60.352;15.746;2023-03-14T10:32:43;0.30;;;0.30;;
13481;SDS011;6813;60.352;15.746;2023-03-14T10:37:59;1.10;;;0.40;;
13481;SDS011;6813;60.352;15.746;2023-03-14T10:40:33;0.20;;;0.20;;
13481;SDS011;6813;60.352;15.746;2023-03-14T10:43:04;0.20;;;0.20;;
13481;SDS011;6813;60.352;15.746;2023-03-14T10:48:24;0.40;;;0.30;;
13481;SDS011;6813;60.352;15.746;2023-03-14T10:51:06;1.23;;;0.40;;
13481;SDS011;6813;60.352;15.746;2023-03-14T10:56:16;0.33;;;0.30;;
13481;SDS011;6813;60.352;15.746;2023-03-14T10:58:44;0.60;;;0.20;;
13481;SDS011;6813;60.352;15.746;2023-03-14T11:01:29;5.17;;;0.53;;
13481;SDS011;6813;60.352;15.746;2023-03-14T11:09:39;0.30;;;0.30;;
13481;SDS011;6813;60.352;15.746;2023-03-14T11:15:31;0.30;;;0.30;;
13481;SDS011;6813;60.352;15.746;2023-03-14T11:26:06;0.30;;;0.30;;
13481;SDS011;6813;60.352;15.746;2023-03-14T11:28:38;1.40;;;0.30;;
13481;SDS011;6813;60.352;15.746;2023-03-14T11:33:56;0.20;;;0.20;;
13481;SDS011;6813;60.352;15.746;2023-03-14T11:39:18;0.77;;;0.57;;
13481;SDS011;6813;60.352;15.746;2023-03-14T11:41:46;0.53;;;0.53;;
13481;SDS011;6813;60.352;15.746;2023-03-14T11:49:38;2.10;;;1.30;;
13481;SDS011;6813;60.352;15.746;2023-03-14T11:54:42;3.90;;;1.50;;
13481;SDS011;6813;60.352;15.746;2023-03-14T11:57:16;1.00;;;0.50;;
13481;SDS011;6813;60.352;15.746;2023-03-14T12:02:21;3.13;;;1.40;;
13481;SDS011;6813;60.352;15.746;2023-03-14T12:07:38;0.50;;;0.40;;
13481;SDS011;6813;60.352;15.746;2023-03-14T12:10:17;0.20;;;0.20;;
13481;SDS011;6813;60.352;15.746;2023-03-14T12:12:42;1.87;;;0.50;;
13481;SDS011;6813;60.352;15.746;2023-03-14T12:15:18;1.60;;;0.97;;
13481;SDS011;6813;60.352;15.746;2023-03-14T12:17:46;1.47;;;0.63;;
13481;SDS011;6813;60.352;15.746;2023-03-14T12:20:18;2.83;;;1.23;;
13481;SDS011;6813;60.352;15.746;2023-03-14T12:22:46;2.97;;;2.07;;
13481;SDS011;6813;60.352;15.746;2023-03-14T12:25:16;1.93;;;1.03;;
13481;SDS011;6813;60.352;15.746;2023-03-14T12:30:36;0.70;;;0.60;;
13481;SDS011;6813;60.352;15.746;2023-03-14T12:38:52;2.50;;;0.53;;
13481;SDS011;6813;60.352;15.746;2023-03-14T12:41:14;1.10;;;0.80;;
13481;SDS011;6813;60.352;15.746;2023-03-14T12:43:49;2.57;;;1.07;;
13481;SDS011;6813;60.352;15.746;2023-03-14T12:46:20;0.90;;;0.60;;
13481;SDS011;6813;60.352;15.746;2023-03-14T12:48:48;1.77;;;1.20;;
13481;SDS011;6813;60.352;15.746;2023-03-14T12:51:44;0.50;;;0.40;;
13481;SDS011;6813;60.352;15.746;2023-03-14T12:54:19;1.77;;;0.93;;
13481;SDS011;6813;60.352;15.746;2023-03-14T12:59:57;0.37;;;0.33;;
13481;SDS011;6813;60.352;15.746;2023-03-14T13:04:53;0.50;;;0.50;;
13481;SDS011;6813;60.352;15.746;2023-03-14T13:15:55;0.80;;;0.80;;
13481;SDS011;6813;60.352;15.746;2023-03-14T13:24:00;1.40;;;0.50;;
13481;SDS011;6813;60.352;15.746;2023-03-14T13:26:37;0.23;;;0.23;;
13481;SDS011;6813;60.352;15.746;2023-03-14T13:29:24;0.40;;;0.30;;
13481;SDS011;6813;60.352;15.746;2023-03-14T13:31:58;2.30;;;0.63;;
13481;SDS011;6813;60.352;15.746;2023-03-14T13:34:26;0.80;;;0.60;;
13481;SDS011;6813;60.352;15.746;2023-03-14T13:36:54;1.50;;;0.33;;
13481;SDS011;6813;60.352;15.746;2023-03-14T13:39:21;0.30;;;0.30;;
13481;SDS011;6813;60.352;15.746;2023-03-14T13:41:50;0.80;;;0.63;;
13481;SDS011;6813;60.352;15.746;2023-03-14T13:46:58;1.20;;;0.50;;
13481;SDS011;6813;60.352;15.746;2023-03-14T13:49:24;1.73;;;0.70;;
13481;SDS011;6813;60.352;15.746;2023-03-14T13:51:51;0.67;;;0.50;;
13481;SDS011;6813;60.352;15.746;2023-03-14T13:54:21;2.07;;;0.70;;
13481;SDS011;6813;60.352;15.746;2023-03-14T13:56:47;0.60;;;0.60;;
13481;SDS011;6813;60.352;15.746;2023-03-14T13:59:24;1.33;;;0.70;;
13481;SDS011;6813;60.352;15.746;2023-03-14T14:01:51;0.70;;;0.70;;
13481;SDS011;6813;60.352;15.746;2023-03-14T14:04:19;0.53;;;0.53;;
13481;SDS011;6813;60.352;15.746;2023-03-14T14:06:57;0.50;;;0.40;;
13481;SDS011;6813;60.352;15.746;2023-03-14T14:14:31;0.93;;;0.43;;
13481;SDS011;6813;60.352;15.746;2023-03-14T14:16:57;0.27;;;0.27;;
13481;SDS011;6813;60.352;15.746;2023-03-14T14:19:26;1.07;;;0.80;;
13481;SDS011;6813;60.352;15.746;2023-03-14T14:21:53;0.80;;;0.70;;
13481;SDS011;6813;60.352;15.746;2023-03-14T14:24:20;0.47;;;0.40;;
13481;SDS011;6813;60.352;15.746;2023-03-14T14:26:52;0.43;;;0.40;;
13481;SDS011;6813;60.352;15.746;2023-03-14T14:29:29;1.57;;;0.87;;
13481;SDS011;6813;60.352;15.746;2023-03-14T14:32:14;0.80;;;0.60;;
13481;SDS011;6813;60.352;15.746;2023-03-14T14:34:44;2.20;;;0.70;;
13481;SDS011;6813;60.352;15.746;2023-03-14T14:37:18;0.50;;;0.40;;
13481;SDS011;6813;60.352;15.746;2023-03-14T14:39:45;0.53;;;0.40;;
13481;SDS011;6813;60.352;15.746;2023-03-14T14:42:15;0.47;;;0.40;;
13481;SDS011;6813;60.352;15.746;2023-03-14T14:44:42;0.40;;;0.40;;
13481;SDS011;6813;60.352;15.746;2023-03-14T14:47:12;0.47;;;0.47;;
13481;SDS011;6813;60.352;15.746;2023-03-14T14:49:40;2.47;;;0.70;;
13481;SDS011;6813;60.352;15.746;2023-03-14T14:52:10;0.77;;;0.57;;
13481;SDS011;6813;60.352;15.746;2023-03-14T14:54:57;0.67;;;0.53;;
13481;SDS011;6813;60.352;15.746;2023-03-14T14:57:25;0.97;;;0.40;;
13481;SDS011;6813;60.352;15.746;2023-03-14T15:03:12;1.97;;;1.10;;
13481;SDS011;6813;60.352;15.746;2023-03-14T15:05:40;0.73;;;0.63;;
13481;SDS011;6813;60.352;15.746;2023-03-14T15:08:10;0.73;;;0.60;;
13481;SDS011;6813;60.352;15.746;2023-03-14T15:10:36;0.70;;;0.70;;
13481;SDS011;6813;60.352;15.746;2023-03-14T15:13:02;0.80;;;0.70;;
13481;SDS011;6813;60.352;15.746;2023-03-14T15:15:28;1.00;;;0.60;;
13481;SDS011;6813;60.352;15.746;2023-03-14T15:17:53;0.60;;;0.50;;
13481;SDS011;6813;60.352;15.746;2023-03-14T15:20:19;0.80;;;0.60;;
13481;SDS011;6813;60.352;15.746;2023-03-14T15:22:48;0.87;;;0.57;;
13481;SDS011;6813;60.352;15.746;2023-03-14T15:25:14;0.60;;;0.60;;
13481;SDS011;6813;60.352;15.746;2023-03-14T15:27:40;3.13;;;0.40;;
13481;SDS011;6813;60.352;15.746;2023-03-14T15:30:17;0.80;;;0.60;;
13481;SDS011;6813;60.352;15.746;2023-03-14T15:32:43;1.33;;;0.70;;
13481;SDS011;6813;60.352;15.746;2023-03-14T15:35:09;0.30;;;0.30;;
13481;SDS011;6813;60.352;15.746;2023-03-14T15:37:35;0.60;;;0.40;;
13481;SDS011;6813;60.352;15.746;2023-03-14T15:40:01;0.73;;;0.40;;
13481;SDS011;6813;60.352;15.746;2023-03-14T15:42:36;0.30;;;0.30;;
13481;SDS011;6813;60.352;15.746;2023-03-14T15:45:02;0.53;;;0.47;;
13481;SDS011;6813;60.352;15.746;2023-03-14T15:47:28;0.47;;;0.40;;
13481;SDS011;6813;60.352;15.746;2023-03-14T15:49:57;0.40;;;0.40;;
13481;SDS011;6813;60.352;15.746;2023-03-14T15:52:23;0.40;;;0.40;;
13481;SDS011;6813;60.352;15.746;2023-03-14T15:54:48;1.03;;;0.60;;
13481;SDS011;6813;60.352;15.746;2023-03-14T15:57:14;1.07;;;0.70;;
13481;SDS011;6813;60.352;15.746;2023-03-14T15:59:40;0.40;;;0.40;;
13481;SDS011;6813;60.352;15.746;2023-03-14T16:02:05;1.10;;;0.60;;
13481;SDS011;6813;60.352;15.746;2023-03-14T16:04:31;1.83;;;0.50;;
13481;SDS011;6813;60.352;15.746;2023-03-14T16:06:57;0.50;;;0.50;;
13481;SDS011;6813;60.352;15.746;2023-03-14T16:09:22;0.90;;;0.30;;
13481;SDS011;6813;60.352;15.746;2023-03-14T16:11:54;0.87;;;0.60;;
13481;SDS011;6813;60.352;15.746;2023-03-14T16:14:19;1.93;;;0.50;;
13481;SDS011;6813;60.352;15.746;2023-03-14T16:16:46;0.43;;;0.43;;
13481;SDS011;6813;60.352;15.746;2023-03-14T16:19:11;1.17;;;0.40;;
13481;SDS011;6813;60.352;15.746;2023-03-14T16:21:37;1.87;;;0.77;;
13481;SDS011;6813;60.352;15.746;2023-03-14T16:24:03;1.50;;;0.67;;